Time;durP1;ratioP1;P1;durP2;ratioP2;P2;SDS_P1;SDS_P2;PMS_P1;PMS_P2;Temp;Humidity;BMP_temperature;BMP_pressure;BME280_temperature;BME280_humidity;BME280_pressure;Samples;Min_cycle;Max_cycle;Signal;HPM_P1;HPM_P2
2021/04/27 00:03:42;;;;;;;10.60;6.70;;;;;;;-1.52;67.92;100019.89;233268;1173;115390;-64
2021/04/27 00:08:46;;;;;;;14.55;7.95;;;;;;;-1.65;67.99;100011.62;233389;1173;114880;-61
2021/04/27 00:13:49;;;;;;;18.98;10.73;;;;;;;-1.80;68.45;100006.08;233630;1172;115044;-62
2021/04/27 00:18:53;;;;;;;13.83;8.80;;;;;;;-1.85;68.46;100005.72;233857;1173;114868;-62
2021/04/27 00:23:59;;;;;;;16.40;8.17;;;;;;;-1.88;68.88;100003.41;233391;1173;115275;-62
2021/04/27 00:29:05;;;;;;;14.25;7.70;;;;;;;-1.88;68.96;100000.80;233491;1173;114807;-62
2021/04/27 00:34:09;;;;;;;17.78;7.98;;;;;;;-1.87;69.25;99999.83;233143;1173;117578;-62
2021/04/27 00:39:13;;;;;;;14.00;8.33;;;;;;;-1.91;68.61;99998.47;233711;1171;115899;-61
2021/04/27 00:44:18;;;;;;;26.20;13.10;;;;;;;-2.02;68.92;99993.45;233293;1168;114647;-62
2021/04/27 00:49:22;;;;;;;28.00;15.30;;;;;;;-2.07;69.39;99993.89;233303;1173;115494;-62
2021/04/27 00:54:26;;;;;;;34.48;16.18;;;;;;;-2.05;69.00;99998.97;234006;1173;115514;-63
2021/04/27 00:59:29;;;;;;;36.55;15.43;;;;;;;-2.00;69.21;99994.13;234362;1172;115150;-62
2021/04/27 01:04:35;;;;;;;35.65;16.13;;;;;;;-2.09;69.35;99992.39;233213;1172;114830;-62
2021/04/27 01:09:44;;;;;;;28.57;12.17;;;;;;;-2.12;69.40;99990.07;234352;1173;114713;-61
2021/04/27 01:14:56;;;;;;;25.13;11.30;;;;;;;-2.14;70.17;99995.44;233107;1173;115356;-61
2021/04/27 01:20:18;;;;;;;17.13;10.88;;;;;;;-2.17;70.22;99992.33;235336;1168;114845;-62
2021/04/27 01:25:50;;;;;;;18.97;11.87;;;;;;;-2.19;69.68;99987.25;235275;1173;114818;-62
2021/04/27 01:30:54;;;;;;;27.68;12.98;;;;;;;-2.23;69.82;99985.89;235297;1168;114962;-62
2021/04/27 01:35:59;;;;;;;24.75;14.65;;;;;;;-2.26;69.49;99982.75;235222;1174;115283;-62
2021/04/27 01:41:04;;;;;;;21.35;11.80;;;;;;;-2.32;69.93;99986.77;235086;1174;114570;-62
2021/04/27 01:46:08;;;;;;;25.25;12.50;;;;;;;-2.31;69.67;99982.36;234601;1174;115112;-62
2021/04/27 01:51:12;;;;;;;24.57;15.33;;;;;;;-2.36;69.51;99977.57;234623;1174;115068;-62
2021/04/27 01:56:16;;;;;;;28.10;14.00;;;;;;;-2.39;70.02;99978.69;234548;1173;115180;-65
2021/04/27 02:01:20;;;;;;;22.00;12.28;;;;;;;-2.48;69.55;99979.58;233470;1172;115361;-61
2021/04/27 02:06:25;;;;;;;21.95;12.20;;;;;;;-2.50;70.37;99986.73;234204;1172;114745;-60
2021/04/27 02:11:33;;;;;;;26.87;13.53;;;;;;;-2.46;70.00;99972.42;234967;1173;114769;-62
2021/04/27 02:17:00;;;;;;;29.83;13.08;;;;;;;-2.49;70.00;99969.28;233895;1172;115092;-61
2021/04/27 02:22:07;;;;;;;23.93;12.35;;;;;;;-2.54;69.89;99969.71;234043;1173;115510;-61
2021/04/27 02:27:12;;;;;;;20.30;11.35;;;;;;;-2.59;70.53;99964.09;233540;1173;114724;-61
2021/04/27 02:32:15;;;;;;;26.75;15.58;;;;;;;-2.62;70.01;99969.61;232644;1172;114593;-61
2021/04/27 02:37:19;;;;;;;27.23;15.05;;;;;;;-2.69;69.77;99970.32;233201;1172;115303;-61
2021/04/27 02:42:23;;;;;;;33.10;15.45;;;;;;;-2.81;69.84;99969.70;234375;1172;115632;-61
2021/04/27 02:47:26;;;;;;;37.85;18.48;;;;;;;-2.82;70.30;99965.45;234052;1172;114856;-61
2021/04/27 02:52:31;;;;;;;40.08;17.40;;;;;;;-2.82;71.01;99960.23;233305;1173;115830;-61
2021/04/27 02:57:34;;;;;;;35.70;19.83;;;;;;;-2.86;70.02;99964.91;233577;1174;115523;-61
2021/04/27 03:02:37;;;;;;;59.18;27.45;;;;;;;-2.95;70.75;99967.54;233568;1174;118358;-61
2021/04/27 03:07:40;;;;;;;40.70;22.33;;;;;;;-3.01;70.96;99962.88;232979;1172;116066;-61
2021/04/27 03:12:44;;;;;;;29.80;15.60;;;;;;;-3.07;70.67;99965.13;234261;1173;116699;-60
2021/04/27 03:17:47;;;;;;;31.18;18.10;;;;;;;-3.16;70.73;99962.53;233384;1174;116064;-61
2021/04/27 03:22:52;;;;;;;26.97;16.63;;;;;;;-3.18;70.85;99962.67;234987;1173;115930;-61
2021/04/27 03:27:55;;;;;;;42.10;21.18;;;;;;;-3.08;71.78;99966.09;235429;1173;115922;-61
2021/04/27 03:32:59;;;;;;;45.15;18.98;;;;;;;-2.82;70.77;99970.66;233289;1173;115500;-61
2021/04/27 03:38:02;;;;;;;43.38;22.05;;;;;;;-2.36;70.17;99972.35;235442;1173;115653;-61
2021/04/27 03:43:06;;;;;;;40.58;23.78;;;;;;;-1.59;69.89;99969.20;233237;1173;116775;-61
2021/04/27 03:48:16;;;;;;;40.93;19.25;;;;;;;-0.68;69.49;99967.00;235274;1167;115775;-62
2021/04/27 03:53:20;;;;;;;37.33;17.18;;;;;;;0.73;67.83;99966.09;235487;1173;117352;-64
2021/04/27 03:58:23;;;;;;;15.30;7.90;;;;;;;2.38;65.60;99965.05;234214;1173;117262;-64
2021/04/27 04:03:27;;;;;;;13.55;9.30;;;;;;;2.05;64.79;99972.35;232877;1174;115472;-64
2021/04/27 04:08:32;;;;;;;22.17;15.87;;;;;;;1.05;64.75;99967.84;233315;1173;116505;-64
2021/04/27 04:13:37;;;;;;;23.10;14.48;;;;;;;0.21;64.35;99975.11;234335;1174;115873;-65
2021/04/27 04:18:41;;;;;;;30.13;16.37;;;;;;;-0.31;65.66;99971.08;232709;1173;115209;-64
2021/04/27 04:23:46;;;;;;;18.30;13.45;;;;;;;-0.72;65.66;99974.34;232857;1174;115369;-64
2021/04/27 04:28:51;;;;;;;23.65;15.73;;;;;;;-0.97;66.17;99976.98;232961;1173;114883;-64
2021/04/27 04:33:55;;;;;;;32.10;20.75;;;;;;;-0.99;67.11;99984.17;233465;1173;115529;-63
2021/04/27 04:38:58;;;;;;;45.50;22.27;;;;;;;-0.92;67.68;99993.05;232973;1173;116674;-64
2021/04/27 04:44:03;;;;;;;34.15;20.68;;;;;;;-0.97;67.69;99995.30;233367;1173;115077;-61
2021/04/27 04:49:11;;;;;;;35.87;20.80;;;;;;;-0.93;68.36;100004.50;233794;1172;114698;-64
2021/04/27 04:54:15;;;;;;;38.73;23.37;;;;;;;-0.85;68.76;99996.67;232533;1167;115689;-62
2021/04/27 04:59:19;;;;;;;50.20;25.03;;;;;;;-0.76;69.04;99996.56;234732;1174;114887;-64
2021/04/27 05:04:21;;;;;;;46.25;23.58;;;;;;;-0.60;69.51;100005.47;233987;1173;115444;-69
2021/04/27 05:09:24;;;;;;;25.80;17.73;;;;;;;0.97;67.33;99995.73;233266;1173;115837;-66
2021/04/27 05:14:27;;;;;;;28.17;16.87;;;;;;;3.53;64.75;99989.27;232776;1173;114791;-68
2021/04/27 05:19:32;;;;;;;25.33;14.15;;;;;;;6.39;61.35;99992.86;234463;1173;115486;-66
2021/04/27 05:24:37;;;;;;;22.15;14.08;;;;;;;8.04;61.25;99993.40;235359;1174;115574;-66
2021/04/27 05:29:39;;;;;;;25.70;15.35;;;;;;;11.12;56.28;99981.41;235382;1173;116605;-65
2021/04/27 05:34:42;;;;;;;24.55;15.95;;;;;;;12.47;54.45;99988.17;235379;1173;116454;-65
2021/04/27 05:39:44;;;;;;;21.80;16.03;;;;;;;11.25;54.68;99995.56;235354;1173;116443;-64
2021/04/27 05:44:46;;;;;;;36.33;18.30;;;;;;;10.04;54.88;99997.59;235176;1168;116265;-64
2021/04/27 05:49:49;;;;;;;24.78;16.93;;;;;;;9.74;54.92;99996.74;235183;1173;116443;-65
2021/04/27 05:54:51;;;;;;;26.48;17.88;;;;;;;8.84;55.54;99999.06;235261;1173;116052;-67
2021/04/27 05:59:53;;;;;;;21.28;14.93;;;;;;;8.25;55.52;100000.25;234221;1173;116300;-66
2021/04/27 06:04:56;;;;;;;18.35;13.83;;;;;;;7.88;55.71;100001.86;233489;1173;117852;-67
2021/04/27 06:09:58;;;;;;;15.80;11.30;;;;;;;7.23;56.47;100008.16;235240;1166;116560;-67
2021/04/27 06:15:05;;;;;;;12.63;9.10;;;;;;;6.79;56.79;99999.00;235060;1172;116284;-70
2021/04/27 06:20:09;;;;;;;14.65;9.55;;;;;;;6.52;56.72;100010.59;234462;1174;117003;-69
2021/04/27 06:25:12;;;;;;;11.05;8.13;;;;;;;6.25;56.79;100010.54;232444;1173;115880;-66
2021/04/27 06:30:16;;;;;;;9.33;6.48;;;;;;;6.05;56.92;100009.67;232676;1173;115932;-64
2021/04/27 06:35:26;;;;;;;10.70;4.98;;;;;;;5.94;56.44;100020.81;234673;1173;116426;-69
2021/04/27 06:40:30;;;;;;;5.43;2.90;;;;;;;5.84;55.37;100015.03;233065;1173;117179;-66
2021/04/27 06:45:34;;;;;;;4.98;3.43;;;;;;;5.82;54.60;100011.77;233057;1173;116101;-65
2021/04/27 06:50:39;;;;;;;5.30;3.55;;;;;;;6.00;55.00;100020.03;235140;1174;115692;-65
2021/04/27 06:55:42;;;;;;;3.00;1.90;;;;;;;6.32;53.57;100016.67;234028;1173;116814;-66
2021/04/27 07:00:44;;;;;;;2.20;2.00;;;;;;;7.37;51.83;100020.36;233104;1173;116863;-65
2021/04/27 07:05:47;;;;;;;1.58;1.48;;;;;;;9.02;51.42;100020.38;232459;1173;116843;-67
2021/04/27 07:10:51;;;;;;;2.35;2.00;;;;;;;10.21;50.61;100019.11;233745;1173;115363;-70
2021/04/27 07:15:55;;;;;;;5.37;2.10;;;;;;;10.88;48.19;100027.78;234309;1172;116947;-68
2021/04/27 07:20:59;;;;;;;1.80;1.45;;;;;;;11.04;47.44;100016.42;232756;1172;116231;-64
2021/04/27 07:26:04;;;;;;;1.35;1.25;;;;;;;11.41;47.19;100016.20;234978;1174;121716;-66
2021/04/27 07:31:07;;;;;;;3.00;1.38;;;;;;;11.68;45.32;100025.33;235136;1173;116448;-66
2021/04/27 07:36:10;;;;;;;1.38;1.28;;;;;;;11.68;45.04;100019.99;235033;1174;115905;-64
2021/04/27 07:41:13;;;;;;;2.53;1.23;;;;;;;11.97;44.99;100023.56;235191;1173;116876;-66
2021/04/27 07:46:16;;;;;;;2.65;2.08;;;;;;;12.00;42.33;100011.59;235438;1173;116290;-65
2021/04/27 07:51:19;;;;;;;3.38;2.05;;;;;;;11.55;41.00;100014.92;235431;1173;116992;-65
2021/04/27 07:56:21;;;;;;;1.53;1.13;;;;;;;11.46;41.75;100011.79;235187;1173;116408;-65
2021/04/27 08:01:24;;;;;;;4.90;1.73;;;;;;;11.42;40.53;100009.81;234925;1173;117662;-65
2021/04/27 08:06:27;;;;;;;0.90;0.90;;;;;;;11.14;40.08;100014.00;234021;1173;116319;-65
2021/04/27 08:11:37;;;;;;;1.68;0.78;;;;;;;10.96;39.74;100016.78;234133;1173;116711;-65
2021/04/27 08:16:41;;;;;;;0.80;0.80;;;;;;;10.87;40.27;100015.48;233920;1173;115850;-66
2021/04/27 08:21:45;;;;;;;1.03;1.03;;;;;;;10.83;39.53;100016.16;233568;1173;116460;-67
2021/04/27 08:26:51;;;;;;;1.10;1.00;;;;;;;10.63;38.86;100017.30;233832;1173;116643;-67
2021/04/27 08:31:55;;;;;;;3.28;0.95;;;;;;;10.60;39.34;100004.42;232573;1173;116624;-66
2021/04/27 08:36:59;;;;;;;2.25;1.08;;;;;;;10.79;40.15;100005.14;233043;1173;115968;-65
2021/04/27 08:42:03;;;;;;;0.80;0.80;;;;;;;11.18;40.99;100006.34;232460;1173;116569;-65
2021/04/27 08:47:10;;;;;;;0.40;0.40;;;;;;;11.28;39.45;100003.92;233751;1167;116961;-66
2021/04/27 08:52:13;;;;;;;1.25;1.18;;;;;;;11.55;38.67;99998.09;233049;1173;116151;-65
2021/04/27 08:57:20;;;;;;;1.98;1.73;;;;;;;11.30;38.37;99998.35;234249;1172;116533;-67
2021/04/27 09:02:30;;;;;;;1.33;0.93;;;;;;;11.44;38.73;100002.39;233300;1173;116336;-66
2021/04/27 09:07:43;;;;;;;2.10;0.90;;;;;;;11.51;37.88;100000.41;232946;1173;116789;-66
2021/04/27 09:12:51;;;;;;;1.15;1.05;;;;;;;11.55;38.11;99990.89;233114;1173;116883;-66
2021/04/27 09:17:55;;;;;;;0.85;0.85;;;;;;;11.50;36.86;99993.45;233495;1171;115981;-66
2021/04/27 09:23:16;;;;;;;0.70;0.70;;;;;;;11.58;36.92;99993.09;234791;1173;116017;-67
2021/04/27 09:28:33;;;;;;;0.68;0.68;;;;;;;11.67;37.03;99985.52;234495;1172;115905;-65
2021/04/27 09:33:37;;;;;;;1.27;0.60;;;;;;;11.77;37.89;99978.56;234674;1172;115525;-68
2021/04/27 09:38:40;;;;;;;4.15;1.13;;;;;;;11.90;36.50;99974.01;233750;1174;115281;-66
2021/04/27 09:43:47;;;;;;;1.43;1.23;;;;;;;12.09;37.28;99978.11;234497;1173;115500;-67
2021/04/27 09:48:55;;;;;;;1.53;0.80;;;;;;;12.35;36.94;99982.05;235371;1174;115165;-67
2021/04/27 09:54:13;;;;;;;0.90;0.90;;;;;;;12.41;35.70;99965.06;235216;1173;116007;-67
2021/04/27 09:59:34;;;;;;;2.03;1.18;;;;;;;12.55;36.24;99969.03;235316;1172;114874;-67
2021/04/27 10:04:40;;;;;;;0.60;0.60;;;;;;;12.81;35.42;99971.09;235179;1174;115272;-67
2021/04/27 10:09:47;;;;;;;3.60;1.40;;;;;;;12.91;36.32;99975.77;235145;1167;115000;-67
2021/04/27 10:14:50;;;;;;;2.70;1.30;;;;;;;13.01;35.38;99967.10;235214;1173;115692;-66
2021/04/27 10:19:53;;;;;;;0.95;0.88;;;;;;;13.06;34.77;99962.64;235154;1173;115134;-66
2021/04/27 10:24:57;;;;;;;2.20;1.75;;;;;;;13.23;34.96;99961.82;234473;1173;114787;-67
2021/04/27 10:30:18;;;;;;;9.53;1.40;;;;;;;13.29;34.62;99955.48;233601;1174;115358;-67
2021/04/27 10:35:21;;;;;;;4.80;1.60;;;;;;;13.26;33.48;99953.30;232242;1174;115135;-68
2021/04/27 10:40:58;;;;;;;3.98;1.33;;;;;;;13.23;33.78;99949.25;232202;1167;114932;-68
2021/04/27 10:46:22;;;;;;;1.95;1.68;;;;;;;13.32;34.41;99934.39;233888;1172;116808;-68
2021/04/27 10:51:25;;;;;;;1.98;1.45;;;;;;;13.37;33.97;99931.78;233795;1173;114691;-68
2021/04/27 10:56:44;;;;;;;1.95;1.13;;;;;;;12.88;33.83;99925.42;232651;1174;208330;-66
2021/04/27 11:01:49;;;;;;;2.75;0.80;;;;;;;12.36;34.28;99927.54;234778;1174;115482;-65
2021/04/27 11:07:16;;;;;;;2.35;1.20;;;;;;;12.02;34.56;99918.66;234139;1173;115325;-65
2021/04/27 11:12:34;;;;;;;1.80;1.33;;;;;;;11.72;34.09;99914.33;233543;1173;115505;-67
2021/04/27 11:17:40;;;;;;;1.00;0.90;;;;;;;11.36;34.27;99918.14;232627;1173;115573;-67
2021/04/27 11:22:52;;;;;;;1.25;1.15;;;;;;;11.25;33.68;99908.31;232639;1173;116119;-65
2021/04/27 11:27:55;;;;;;;1.93;1.30;;;;;;;11.06;34.22;99912.15;232645;1173;115698;-68
2021/04/27 11:33:03;;;;;;;1.75;1.65;;;;;;;11.00;34.83;99905.91;235204;1173;115510;-66
2021/04/27 11:38:07;;;;;;;2.60;1.88;;;;;;;10.91;34.21;99901.97;232039;1173;115836;-68
2021/04/27 11:43:15;;;;;;;4.88;1.40;;;;;;;11.55;36.57;99897.45;232482;1172;115377;-65
2021/04/27 11:48:21;;;;;;;1.63;1.33;;;;;;;12.42;36.71;99897.17;233395;1173;115080;-66
2021/04/27 11:53:26;;;;;;;3.55;1.18;;;;;;;12.91;35.26;99889.34;235217;1173;115230;-67
2021/04/27 11:58:38;;;;;;;2.10;1.10;;;;;;;13.28;34.75;99892.30;235222;1171;117182;-65
2021/04/27 12:03:47;;;;;;;3.08;1.65;;;;;;;13.31;32.53;99886.44;235108;1174;115441;-66
2021/04/27 12:08:55;;;;;;;2.63;1.50;;;;;;;13.41;32.97;99878.55;235341;1173;114844;-65
2021/04/27 12:14:11;;;;;;;9.53;1.58;;;;;;;13.62;33.72;99868.86;234946;1174;115381;-66
2021/04/27 12:19:19;;;;;;;3.70;1.40;;;;;;;13.78;32.99;99865.27;234509;1173;114746;-65
2021/04/27 12:24:29;;;;;;;12.17;1.83;;;;;;;12.87;32.39;99866.81;234143;1173;115626;-66
2021/04/27 12:30:06;;;;;;;4.95;1.13;;;;;;;12.16;32.44;99863.88;234887;1173;115299;-67
2021/04/27 12:35:11;;;;;;;;;;;;;;;11.78;33.57;99865.34;233902;1174;115824;-66
2021/04/27 12:40:20;;;;;;;1.75;1.33;;;;;;;11.97;33.49;99862.45;235343;1173;103191;-65
2021/04/27 12:45:29;;;;;;;1.65;1.55;;;;;;;12.05;33.16;99854.05;233847;1173;115110;-64
2021/04/27 12:50:33;;;;;;;4.40;1.55;;;;;;;12.14;32.63;99849.94;233360;1173;115945;-64
2021/04/27 12:55:38;;;;;;;1.50;1.40;;;;;;;12.15;33.36;99846.22;233434;1167;117300;-64
2021/04/27 13:01:02;;;;;;;4.73;1.33;;;;;;;12.33;33.88;99835.27;232550;1174;116013;-64
2021/04/27 13:06:25;;;;;;;1.90;1.60;;;;;;;12.41;33.71;99829.53;234108;1173;115277;-66
2021/04/27 13:11:29;;;;;;;1.88;1.68;;;;;;;12.63;33.29;99824.22;233872;1173;114517;-66
2021/04/27 13:16:36;;;;;;;2.23;1.60;;;;;;;12.69;33.58;99822.44;233492;1173;115247;-67
2021/04/27 13:22:01;;;;;;;2.80;2.30;;;;;;;12.63;33.19;99818.06;233615;1173;115452;-68
2021/04/27 13:27:08;;;;;;;2.93;1.75;;;;;;;12.59;33.20;99816.94;233194;1168;116136;-68
2021/04/27 13:32:24;;;;;;;2.00;1.38;;;;;;;12.57;32.62;99814.50;233009;1174;116136;-65
2021/04/27 13:37:29;;;;;;;2.48;1.33;;;;;;;12.38;33.05;99811.30;233201;1167;115910;-65
2021/04/27 13:42:46;;;;;;;1.10;1.08;;;;;;;12.32;33.13;99804.25;233152;1174;115311;-66
2021/04/27 13:47:50;;;;;;;1.58;1.48;;;;;;;12.41;34.11;99801.98;234161;1174;115905;-66
2021/04/27 13:52:55;;;;;;;2.00;1.80;;;;;;;12.52;33.24;99792.26;234062;1173;115559;-66
2021/04/27 13:57:59;;;;;;;5.03;2.00;;;;;;;12.13;32.41;99790.34;233161;1173;116797;-66
2021/04/27 14:03:04;;;;;;;1.58;1.28;;;;;;;11.71;32.76;99794.40;233356;1173;115982;-67
2021/04/27 14:08:09;;;;;;;1.83;1.60;;;;;;;11.38;33.06;99789.80;233610;1173;116109;-67
2021/04/27 14:13:13;;;;;;;1.20;1.20;;;;;;;11.22;33.24;99780.70;234579;1173;116970;-66
2021/04/27 14:18:17;;;;;;;1.78;1.58;;;;;;;11.04;33.75;99784.34;235267;1174;115585;-65
2021/04/27 14:23:21;;;;;;;2.18;1.88;;;;;;;10.80;33.08;99772.92;234306;1173;116893;-67
2021/04/27 14:28:25;;;;;;;10.18;1.90;;;;;;;10.63;33.50;99780.04;234319;1174;138640;-65
2021/04/27 14:33:31;;;;;;;3.85;1.65;;;;;;;10.67;33.26;99772.39;235131;1173;116876;-65
2021/04/27 14:38:35;;;;;;;2.48;2.28;;;;;;;10.77;33.85;99772.58;233752;1174;116231;-66
2021/04/27 14:43:45;;;;;;;6.78;1.80;;;;;;;10.79;33.13;99770.49;233357;1173;116071;-66
2021/04/27 14:48:49;;;;;;;1.70;1.48;;;;;;;10.77;33.17;99762.73;233810;1173;117073;-67
2021/04/27 14:53:52;;;;;;;1.97;1.50;;;;;;;10.79;33.87;99754.49;233321;1173;122566;-66
2021/04/27 14:58:55;;;;;;;1.50;1.40;;;;;;;10.77;33.61;99752.06;232994;1173;116974;-69
2021/04/27 15:03:58;;;;;;;1.45;1.35;;;;;;;10.69;33.38;99748.97;233411;1167;116353;-67
2021/04/27 15:09:05;;;;;;;1.43;1.33;;;;;;;10.56;34.06;99755.35;232610;1173;116227;-67
2021/04/27 15:14:13;;;;;;;3.27;1.40;;;;;;;10.51;33.52;99747.25;233203;1173;116192;-64
2021/04/27 15:19:17;;;;;;;1.07;0.93;;;;;;;10.44;33.84;99743.88;233577;1172;115576;-63
2021/04/27 15:24:20;;;;;;;5.88;2.50;;;;;;;10.28;34.27;99742.75;233130;1168;116345;-65
2021/04/27 15:29:24;;;;;;;2.80;2.60;;;;;;;10.14;34.50;99734.14;233416;1173;116944;-63
2021/04/27 15:34:29;;;;;;;4.90;2.23;;;;;;;10.08;33.94;99726.29;233527;1167;116831;-63
2021/04/27 15:39:34;;;;;;;18.95;2.98;;;;;;;10.10;34.22;99724.17;233425;1173;116417;-64
2021/04/27 15:44:38;;;;;;;6.25;2.80;;;;;;;10.05;34.13;99716.91;233678;1174;115904;-65
2021/04/27 15:49:42;;;;;;;5.38;2.00;;;;;;;10.02;34.80;99711.23;233910;1174;115635;-65
2021/04/27 15:54:45;;;;;;;2.08;1.95;;;;;;;9.85;34.43;99705.77;233928;1174;115390;-65
2021/04/27 15:59:48;;;;;;;3.45;2.93;;;;;;;9.80;34.63;99709.11;233384;1172;115992;-67
2021/04/27 16:04:53;;;;;;;2.93;2.53;;;;;;;9.77;34.60;99704.28;233488;1167;115237;-66
2021/04/27 16:09:56;;;;;;;2.75;2.55;;;;;;;9.70;34.80;99706.23;234409;1173;115090;-66
2021/04/27 16:14:59;;;;;;;12.08;3.43;;;;;;;9.65;34.64;99706.09;233726;1172;115054;-65
2021/04/27 16:20:03;;;;;;;3.80;2.73;;;;;;;9.55;35.53;99711.16;233784;1173;115322;-67
2021/04/27 16:25:09;;;;;;;3.93;2.90;;;;;;;9.44;35.28;99698.66;235114;1174;118197;-65
2021/04/27 16:30:13;;;;;;;4.00;2.93;;;;;;;9.36;36.04;99701.64;235327;1173;114776;-64
2021/04/27 16:35:20;;;;;;;7.60;3.83;;;;;;;9.25;35.79;99697.09;235403;1173;115429;-64
2021/04/27 16:40:23;;;;;;;2.05;1.93;;;;;;;9.16;35.92;99696.63;235424;1173;114914;-65
2021/04/27 16:45:27;;;;;;;9.53;6.20;;;;;;;9.06;35.51;99702.47;235297;1173;114787;-64
2021/04/27 16:50:31;;;;;;;2.83;1.90;;;;;;;8.97;37.01;99713.64;235306;1172;115866;-66
2021/04/27 16:55:34;;;;;;;3.27;2.10;;;;;;;8.90;37.05;99705.74;234093;1174;115573;-64
2021/04/27 17:00:40;;;;;;;6.35;2.25;;;;;;;8.85;36.89;99710.13;233702;1167;115835;-65
2021/04/27 17:05:44;;;;;;;3.00;2.45;;;;;;;8.72;37.05;99709.25;233447;1172;115061;-66
2021/04/27 17:10:48;;;;;;;4.10;3.43;;;;;;;8.63;36.88;99707.92;233041;1172;115976;-67
2021/04/27 17:15:51;;;;;;;2.85;2.65;;;;;;;8.50;37.82;99713.41;234356;1173;116888;-64
2021/04/27 17:20:54;;;;;;;2.78;2.15;;;;;;;8.40;38.33;99713.09;234103;1173;115268;-65
2021/04/27 17:25:58;;;;;;;4.03;2.78;;;;;;;8.28;38.42;99712.16;232718;1173;115886;-67
2021/04/27 17:31:01;;;;;;;5.60;4.05;;;;;;;8.17;39.92;99710.25;233901;1172;115986;-66
2021/04/27 17:36:04;;;;;;;6.30;3.73;;;;;;;8.00;39.29;99712.64;232656;1173;115413;-65
2021/04/27 17:41:10;;;;;;;6.85;3.35;;;;;;;7.84;39.50;99719.33;232615;1173;115189;-65
2021/04/27 17:46:13;;;;;;;9.77;4.50;;;;;;;7.65;39.40;99714.98;233306;1173;116067;-64
2021/04/27 17:51:17;;;;;;;10.63;4.58;;;;;;;7.51;40.14;99722.23;232847;1173;117162;-66
2021/04/27 17:56:19;;;;;;;13.98;6.85;;;;;;;7.34;41.32;99729.07;232798;1168;115951;-66
2021/04/27 18:01:22;;;;;;;8.97;6.23;;;;;;;7.10;41.83;99733.30;234034;1174;117093;-67
2021/04/27 18:06:26;;;;;;;6.28;4.03;;;;;;;6.88;42.43;99735.45;233234;1173;115935;-66
2021/04/27 18:11:28;;;;;;;10.60;5.70;;;;;;;6.65;42.08;99732.48;233667;1174;115838;-66
2021/04/27 18:16:33;;;;;;;7.85;4.85;;;;;;;6.50;43.09;99738.02;234558;1173;116623;-64
2021/04/27 18:21:36;;;;;;;18.35;8.98;;;;;;;6.39;43.24;99739.50;233786;1172;115440;-67
2021/04/27 18:26:40;;;;;;;9.50;5.25;;;;;;;6.29;43.75;99749.69;232936;1172;114691;-66
2021/04/27 18:31:44;;;;;;;16.70;6.95;;;;;;;6.12;44.56;99745.83;235188;1173;115602;-66
2021/04/27 18:36:48;;;;;;;18.63;8.30;;;;;;;5.96;45.10;99747.08;235273;1169;114991;-65
2021/04/27 18:41:55;;;;;;;18.90;8.15;;;;;;;5.78;45.97;99753.98;234735;1173;114776;-65
2021/04/27 18:47:01;;;;;;;34.90;9.80;;;;;;;5.60;46.29;99751.91;234997;1166;115107;-65
2021/04/27 18:52:06;;;;;;;15.80;6.23;;;;;;;5.40;46.44;99759.83;234087;1173;115728;-63
2021/04/27 18:57:09;;;;;;;14.60;6.08;;;;;;;5.23;47.01;99761.19;234276;1174;115323;-64
2021/04/27 19:02:13;;;;;;;12.90;8.65;;;;;;;5.06;47.37;99764.20;233926;1172;115367;-64
2021/04/27 19:07:16;;;;;;;14.00;7.53;;;;;;;4.91;48.03;99768.81;233099;1173;115990;-63
2021/04/27 19:12:18;;;;;;;8.23;6.87;;;;;;;4.70;48.17;99763.64;233931;1173;115522;-66
2021/04/27 19:17:21;;;;;;;15.13;7.23;;;;;;;4.52;48.16;99758.08;233040;1173;115306;-64
2021/04/27 19:22:25;;;;;;;17.00;7.10;;;;;;;4.36;48.78;99764.47;233921;1167;115346;-64
2021/04/27 19:27:27;;;;;;;24.77;13.60;;;;;;;4.20;48.88;99770.88;233094;1173;115429;-65
2021/04/27 19:32:30;;;;;;;37.70;24.95;;;;;;;4.09;49.63;99771.39;234090;1173;116485;-65
2021/04/27 19:37:33;;;;;;;43.98;24.90;;;;;;;4.01;49.58;99766.25;232930;1172;115579;-64
2021/04/27 19:42:36;;;;;;;35.75;18.10;;;;;;;3.92;49.84;99762.97;232750;1174;115623;-67
2021/04/27 19:47:39;;;;;;;27.63;15.00;;;;;;;3.85;50.99;99767.36;232957;1174;115143;-67
2021/04/27 19:52:44;;;;;;;28.50;12.80;;;;;;;3.73;51.08;99759.14;233779;1173;115447;-64
2021/04/27 19:57:47;;;;;;;32.63;12.00;;;;;;;3.57;50.24;99764.69;232767;1173;115884;-64
2021/04/27 20:02:51;;;;;;;42.25;19.63;;;;;;;3.46;51.75;99767.81;233498;1172;115076;-62
2021/04/27 20:07:53;;;;;;;31.40;13.43;;;;;;;3.33;51.31;99767.70;233164;1172;115276;-62
2021/04/27 20:12:56;;;;;;;21.57;10.97;;;;;;;3.21;52.23;99767.36;233667;1174;115364;-65
2021/04/27 20:17:59;;;;;;;24.23;12.50;;;;;;;3.11;53.11;99769.47;233395;1173;115143;-65
2021/04/27 20:23:02;;;;;;;27.53;13.23;;;;;;;3.04;52.56;99765.97;233300;1167;114891;-66
2021/04/27 20:28:05;;;;;;;25.38;15.83;;;;;;;3.02;53.78;99765.33;233976;1167;115109;-67
2021/04/27 20:33:07;;;;;;;28.90;13.60;;;;;;;2.94;52.94;99771.52;235256;1167;115066;-67
2021/04/27 20:38:10;;;;;;;23.68;13.53;;;;;;;2.84;53.38;99773.61;234606;1173;117695;-66
2021/04/27 20:43:12;;;;;;;30.45;17.55;;;;;;;2.79;54.26;99781.23;234425;1164;115122;-66
2021/04/27 20:48:15;;;;;;;36.73;18.23;;;;;;;2.75;54.26;99773.91;233036;1167;115159;-66
2021/04/27 20:53:19;;;;;;;36.85;17.80;;;;;;;2.69;55.55;99778.09;235272;1173;116149;-67
2021/04/27 20:58:22;;;;;;;31.40;16.23;;;;;;;2.61;55.16;99763.20;234460;1173;114975;-67
2021/04/27 21:03:25;;;;;;;30.98;18.60;;;;;;;2.60;55.12;99768.65;233641;1173;175736;-64
2021/04/27 21:08:31;;;;;;;33.65;16.80;;;;;;;2.59;55.89;99774.91;232757;1173;115262;-63
2021/04/27 21:13:34;;;;;;;34.28;17.58;;;;;;;2.58;56.16;99778.54;234012;1174;114681;-63
2021/04/27 21:18:37;;;;;;;23.28;14.65;;;;;;;2.50;56.23;99773.36;232512;1173;116238;-65
2021/04/27 21:23:42;;;;;;;23.73;13.23;;;;;;;2.42;55.91;99774.29;233086;1173;115549;-63
2021/04/27 21:28:46;;;;;;;20.35;12.33;;;;;;;2.30;57.01;99779.17;234068;1173;115261;-62
2021/04/27 21:33:48;;;;;;;21.90;11.05;;;;;;;2.21;57.23;99782.05;233111;1168;115308;-64
2021/04/27 21:38:51;;;;;;;15.08;11.48;;;;;;;2.10;57.19;99782.50;233666;1173;115274;-65
2021/04/27 21:43:54;;;;;;;20.78;11.28;;;;;;;2.01;56.80;99782.58;232947;1173;115484;-63
2021/04/27 21:48:56;;;;;;;15.70;9.78;;;;;;;1.97;56.96;99783.10;233043;1174;115943;-64
2021/04/27 21:53:59;;;;;;;15.53;9.95;;;;;;;1.90;57.10;99777.73;233022;1173;114695;-64
2021/04/27 21:59:03;;;;;;;20.80;10.33;;;;;;;1.85;57.87;99776.63;233053;1167;114923;-64
2021/04/27 22:04:08;;;;;;;21.58;10.55;;;;;;;1.76;58.00;99775.08;232678;1167;115287;-63
2021/04/27 22:09:12;;;;;;;17.83;11.15;;;;;;;1.67;58.27;99779.58;233931;1174;115314;-65
2021/04/27 22:14:16;;;;;;;22.43;10.28;;;;;;;1.58;58.46;99783.25;234308;1173;115385;-63
2021/04/27 22:19:19;;;;;;;22.50;12.05;;;;;;;1.47;58.81;99779.24;233585;1173;115431;-65
2021/04/27 22:24:23;;;;;;;22.08;10.60;;;;;;;1.41;59.05;99773.86;234330;1173;116133;-65
2021/04/27 22:29:26;;;;;;;24.60;14.17;;;;;;;1.34;58.96;99773.73;233942;1167;115422;-63
2021/04/27 22:34:29;;;;;;;26.35;13.58;;;;;;;1.26;59.24;99777.22;234626;1173;114975;-63
2021/04/27 22:39:32;;;;;;;20.50;12.00;;;;;;;1.19;59.68;99773.68;233852;1173;115409;-65
2021/04/27 22:44:37;;;;;;;18.80;11.23;;;;;;;1.10;59.71;99774.70;235255;1173;114944;-63
2021/04/27 22:49:40;;;;;;;28.10;13.23;;;;;;;1.04;60.66;99777.20;233528;1173;115544;-62
2021/04/27 22:54:44;;;;;;;25.43;13.13;;;;;;;1.05;60.90;99773.59;234869;1173;116131;-65
2021/04/27 22:59:48;;;;;;;21.95;12.50;;;;;;;1.04;60.83;99771.95;235410;1173;116133;-62
2021/04/27 23:04:52;;;;;;;21.60;14.33;;;;;;;0.99;60.97;99775.91;234737;1172;115232;-65
2021/04/27 23:09:55;;;;;;;22.10;13.75;;;;;;;1.01;61.04;99766.05;233334;1172;115388;-65
2021/04/27 23:15:00;;;;;;;32.73;16.05;;;;;;;1.00;61.21;99756.55;232856;1174;115379;-63